Weather observations for the past three days for
Cleveland Hopkins International Airport
Metric (Imperial)
Date Time (edt) Wind (kph) Vis. (km) Weather Sky Cond. Temperature (ºC) Relative Humidity Wind Chill (°C) Heat Index (°C) Pressure Precipitation (cm)
Air Dwpt 6 hour altimeter (cm) sea level (mb) 1 hr 3 hr 6 hr
Max. Min.
03 02:51 S 9 16.09 Partly Cloudy FEW040 SCT250 23.3 19.4 79% 76.12 1015.4
03 01:51 N 17 16.09 Overcast SCT034 SCT048 BKN060 OVC250 25 19.4 29.4 25 71% 26 76.17 1016.2
03 00:51 SW 15 16.09 Overcast FEW050 FEW100 OVC250 27.2 22.2 74% 30 76.05 1014.6
02 23:51 SW 13 16.09 Partly Cloudy SCT250 27.8 21.7 69% 30 76 1014.0
02 22:51 SW 15 16.09 Partly Cloudy SCT250 28.3 21.7 67% 31 76.02 1014.2
02 21:51 SW 15 16.09 Partly Cloudy SCT250 28.9 22.2 67% 32 76.07 1014.7
02 20:51 SW 11 16.09 Partly Cloudy SCT250 28.9 22.2 67% 32 76.05 1014.5
02 19:51 SW 13 16.09 Partly Cloudy FEW090 SCT250 29.4 22.2 33.9 29.4 65% 33 76.05 1014.6
02 18:51 SW 17 16.09 Partly Cloudy FEW090 SCT250 31.1 22.2 59% 35 76.02 1014.3
02 17:51 W 26 16.09 Partly Cloudy SCT090 SCT250 32.8 21.7 52% 36 76.02 1014.3
02 16:51 SW 22 16.09 Partly Cloudy SCT090 SCT250 33.3 22.2 52% 38 76.07 1014.7
02 15:51 W 24 G 33 16.09 Partly Cloudy SCT095 SCT250 33.9 22.2 50% 38 76.1 1015.3
02 14:51 W 19 16.09 Partly Cloudy FEW050 SCT090 33.3 22.8 54% 38 76.15 1015.8
02 13:51 SW 17 16.09 A Few Clouds FEW050 FEW110 32.8 22.2 32.8 24.4 54% 37 76.17 1016.3
02 12:51 SW 9 16.09 Partly Cloudy SCT090 SCT250 31.7 22.8 59% 36 76.23 1016.9
02 11:51 SW 11 16.09 Mostly Cloudy BKN095 BKN250 30 22.8 65% 34 76.28 1017.6
02 10:51 SW 13 16.09 Mostly Cloudy BKN090 BKN250 28.9 23.3 72% 33 76.28 1017.6
02 09:51 SW 15 16.09 Mostly Cloudy FEW090 BKN250 28.3 23.3 74% 32 76.25 1017.2
02 08:51 SW 11 16.09 Mostly Cloudy FEW065 FEW090 BKN250 26.1 22.8 82% 28 76.23 1017.1
02 07:51 SW 11 16.09 Mostly Cloudy FEW065 SCT090 BKN250 24.4 22.2 25 23.3 88% 25 76.23 1016.9
02 06:51 SW 13 16.09 Partly Cloudy FEW065 FEW090 SCT250 24.4 22.2 88% 25 76.17 1016.3
02 05:51 SW 13 16.09 Partly Cloudy FEW120 SCT250 24.4 22.2 88% 25 76.17 1016.3
02 04:51 SW 11 16.09 Partly Cloudy SCT130 SCT250 24.4 22.8 91% 24 76.2 1016.5
02 03:51 S 9 16.09 Partly Cloudy FEW120 SCT250 24.4 22.2 88% 25 76.17 1016.3
02 02:51 S 7 16.09 Mostly Cloudy SCT120 BKN250 23.9 21.1 84% 24 76.2 1016.5
02 01:51 Calm 16.09 Mostly Cloudy SCT130 BKN250 24.4 21.7 27.8 23.3 85% 25 76.23 1016.9
02 00:51 S 7 16.09 Mostly Cloudy BKN250 23.9 21.7 88% 24 76.2 1016.6
01 23:51 SE 6 16.09 Mostly Cloudy BKN250 24.4 21.7 85% 25 76.17 1016.2
01 22:51 SW 11 16.09 Mostly Cloudy BKN250 23.9 21.1 84% 24 76.17 1016.4
01 21:51 SW 11 16.09 Mostly Cloudy BKN250 26.1 20.6 72% 28 76.15 1015.9
01 20:51 S 7 16.09 Mostly Cloudy FEW140 BKN250 26.7 20 67% 28 76.12 1015.6
01 19:51 SW 13 16.09 Mostly Cloudy FEW140 BKN240 27.8 21.1 31.1 27.8 67% 30 76.1 1015.3
01 18:51 SW 15 16.09 Mostly Cloudy SCT140 BKN220 28.3 21.7 67% 31 76.17 1016.3
01 17:51 W 24 16.09 Mostly Cloudy SCT120 BKN220 29.4 22.2 65% 33 76.17 1016.2
01 16:51 SW 22 G 44 16.09 Mostly Cloudy SCT160 BKN250 30.6 22.8 63% 35 76.15 1015.9
01 15:51 W 19 16.09 Partly Cloudy SCT160 SCT250 30.6 22.8 63% 35 76.15 1016.0
01 14:51 W 24 16.09 Mostly Cloudy FEW160 BKN250 31.1 22.2 59% 35 76.15 1015.8
01 13:51 SW 20 16.09 Mostly Cloudy FEW160 BKN250 30 22.8 31.1 25 65% 34 76.17 1016.3
01 12:51 SW 22 16.09 Partly Cloudy FEW034 SCT160 SCT250 30.6 22.8 63% 35 76.2 1016.5
01 11:51 W 20 16.09 Partly Cloudy FEW150 SCT250 29.4 22.2 65% 33 76.23 1016.8
01 10:51 W 17 16.09 Mostly Cloudy FEW120 BKN150 28.3 22.8 72% 32 76.23 1017.1
01 09:51 SW 19 16.09 Partly Cloudy FEW120 SCT160 27.8 22.2 72% 30 76.2 1016.5
01 08:51 SW 17 16.09 Mostly Cloudy BKN160 BKN250 26.7 22.2 76% 29 76.2 1016.8
01 07:51 SW 13 16.09 Mostly Cloudy BKN160 BKN250 25 21.1 26.1 24.4 79% 26 76.2 1016.6
01 06:51 SW 9 16.09 Mostly Cloudy FEW060 SCT080 BKN160 BKN250 24.4 21.1 82% 25 76.17 1016.5
01 05:51 SW 9 16.09 Mostly Cloudy BKN065 BKN250 24.4 21.1 82% 25 76.15 1016.0
01 04:51 SW 17 16.09 Mostly Cloudy FEW095 BKN120 BKN250 25 21.1 79% 26 76.15 1016.0
01 03:51 SW 20 G 35 16.09 Mostly Cloudy FEW110 BKN140 BKN170 25.6 20.6 74% 27 76.15 1016.0
01 02:51 SW 17 16.09 Mostly Cloudy BKN100 BKN250 25.6 20.6 74% 27 76.17 1016.2
01 01:51 S 19 16.09 Mostly Cloudy BKN100 BKN250 25.6 20.6 27.2 24.4 74% 27 76.17 1016.4
01 00:51 S 13 16.09 Overcast BKN110 BKN160 OVC210 25.6 20 71% 27 76.2 1016.6
31 23:51 S 13 16.09 Overcast OVC110 25 20.6 77% 26 76.2 1016.7
31 22:51 S 13 16.09 Overcast BKN110 BKN180 OVC250 24.4 20.6 79% 25 76.2 1016.7
31 21:51 S 9 16.09 Overcast SCT160 OVC240 25.6 20 71% 27 76.23 1017.1
31 20:51 S 9 16.09 Light Rain SCT110 BKN160 OVC220 26.1 21.1 74% 28 76.2 1016.6
31 19:51 SW 15 16.09 Overcast SCT140 OVC250 27.2 21.1 30 27.2 69% 29 76.23 1017.1
31 18:51 SW 13 16.09 Overcast FEW065 SCT160 OVC250 27.8 21.1 67% 30 76.28 1017.5
31 17:51 NW 6 16.09 Mostly Cloudy SCT140 BKN250 30 20 55% 32 76.28 1017.6
31 16:51 W 15 16.09 Mostly Cloudy SCT140 BKN250 28.9 20 59% 31 76.3 1018.0
31 15:51 W 11 16.09 Mostly Cloudy FEW060 BKN160 BKN250 29.4 20 57% 31 76.28 1017.7
31 14:51 W 11 16.09 Overcast BKN120 OVC250 28.9 19.4 57% 30 76.33 1018.3
31 13:51 W 15 16.09 Overcast BKN120 OVC250 28.9 21.1 29.4 22.8 63% 31 76.35 1018.9
31 12:51 SW 17 16.09 Overcast FEW090 BKN120 OVC250 29.4 21.1 61% 32 76.35 1018.9
31 11:51 SW 15 16.09 Mostly Cloudy BKN095 BKN120 28.9 20 59% 31 76.38 1018.9
31 10:51 SW 15 16.09 Mostly Cloudy SCT085 BKN110 27.8 21.1 67% 30 76.38 1019.1
31 09:51 S 15 16.09 Overcast BKN080 OVC090 25 20 74% 26 76.35 1019.0
31 08:51 SW 7 16.09 Overcast OVC090 23.9 19.4 76% 24 76.38 1019.2
31 07:51 SW 15 16.09 Overcast SCT080 OVC110 23.3 19.4 23.3 22.2 79% 76.38 1019.2
31 06:51 S 13 16.09 Light Rain BKN095 OVC130 23.3 19.4 79% 76.35 1018.9
31 05:51 S 9 16.09 Overcast SCT110 OVC140 22.8 18.9 79% 76.3 1018.2
31 04:51 S 13 16.09 Overcast BKN100 OVC130 23.3 18.9 76% 76.33 1018.5
31 03:51 S 13 16.09 Overcast FEW080 OVC100 23.3 18.9 76% 76.33 1018.5
Date Time (edt) Wind (kph) Vis. (km) Weather Sky Cond. Air Dwpt Max. Min. Relative Humidity Wind Chill (°C) Heat Index (°C) altimeter (cm) sea level (mb) 1 hr 3 hr 6 hr
6 hour
Temperature (ºC) Pressure Precipitation (cm)